Terminal Aerodrome Forecast
Issued by NWS

Home | Current Version | Previous Version | Text Only | Print | Product List | Glossary On
Versions: 1 2 3 4 5 6 7 8 9 10 11 12 13 14 15 16 17 18 19 20 21
000
FTUS43 KILX 262100 AAA
TAFCMI
TAF AMD
KCMI 262157Z 2622/2718 18005KT P6SM BKN010 OVC035
     FM270300 19004KT 4SM BR SCT006 OVC012
     FM271000 33008KT 4SM BR SCT005 OVC010=

USA.gov is the U.S. government's official web portal to all federal, state and local government web resources and services.